SAMR/AFA METAR and TAF weather

Enter ICAO airport designator
Station Type Date Time Source
SAMR METAR 2021/02/18 20:34 UTC NOAA

SAMR 182034Z 09011KT 2000 TSRA FEW040CB SCT045 27/10 Q1009


Station Type Date Time Source
SAMR Decoded METAR 2021/02/18 20:34 UTC NOAA

San Rafael Aerodrome, Argentina (SAMR) 34-35S 068-24W 748M
Feb 18, 2021 - 03:34 PM EST / 2021.02.18 2034 UTC
Wind: from the E (090 degrees) at 13 MPH (11 KT):0
Visibility: 1 mile(s):0
Sky conditions: partly cloudy
Weather: rain with thunder; Cumulonimbus clouds observed
Temperature: 80 F (27 C)
Dew Point: 50 F (10 C)
Relative Humidity: 34%
Pressure (altimeter): 29.80 in. Hg (1009 hPa)
ob: SAMR 182034Z 09011KT 2000 TSRA FEW040CB SCT045 27/10 Q1009
cycle: 20

Station Type Date Time Source
SAMR TAF 2021/02/16 18:09 UTC NOAA

TAF SAMR 161700Z 1618/1718 03010KT 9999 FEW040 TX29/1620Z TN15/1710Z
BECMG 1620/1622 FEW040CB PROB30
TEMPO 1622/1700 6000 TSRA BKN30 FEW040CB
BECMG 1701/1703 VRB03KT 9999 CAVOK

Example: see airport list